Bay Port, New York
Current Conditions -  °F | °C
As of 5:30 AM on Friday 24 Oct 2014 (Local Time) from KISP Reporting Station
Overcast Overcast  
Wind Chill: 11°   Ceiling: 3200
Heat Index: 11°   Visibility: 10mi
Dew Point:   Wind: 14mph
Humidity: 80%   Direction: 320°NW
Pressure: 29.73"   Gusts: 22mph
Location:  40.746°N, 73.0539°W
Report Text: KISP 240930Z AUTO 32012G19KT 10SM FEW027 BKN032 OVC050 11/07 A2973 RMK AO2 T01060072
Loading
Personal Weather Stations






























Interactive Weather Map
Tropical Storm Tracking
New forecast layout! Learn more

10-Day Weather Forecast

Advertisements
Track Severe Weather on mobile